• Join FlightAware (Why Join?)
  • Login
  • US Flag 
04:31AM EST


 

Airport Tracker/Info


-or-


 

Live Flight TrackerFlight Track Log ✈ EJA839 ✈ 27-Apr-2013 ✈ KMQS - KOQU

Flight Track Log - Related Links

Times and Time Zones

All times are in EDT time to prevent confusion due to time zone crossing. See the EJA839 flight status page for this flight to view local times or setup timezone preferences in your user account.

Time Position Orientation Groundspeed Altitude Reporting Facility
EDT Latitude Longitude Course Direction KTS MPH feet Rate Location/Type
03:04PM 39.9833 -75.9000 180° South 214 246 1,700  Level Philadelphia TRACON
03:05PM 39.9167 -75.9000 180° South 260 299 3,000 1,800 Climbing Philadelphia TRACON
03:06PM 39.9167 -75.8167 90° East 260 299 5,900 2,340 Climbing Philadelphia TRACON
03:07PM 39.9333 -75.7167 78° East 260 299 7,700 1,020 Climbing Philadelphia TRACON
03:08PM 39.9500 -75.6167 78° East 278 320 8,000 120 Climbing Philadelphia TRACON
03:09PM 39.9333 -75.5167 102° East 276 318 8,000 360 Level Philadelphia TRACON
03:10PM 39.9167 -75.4167 102° East 276 318 8,800 1,140 Climbing Philadelphia TRACON
03:11PM 39.9000 -75.3167 102° East 288 331 10,300 1,620 Climbing Philadelphia TRACON
03:12PM 39.8833 -75.2167 102° East 312 359 11,900 540 Climbing Philadelphia TRACON
03:14PM 39.8383 -74.9775 104° East 363 418 12,000  Climbing New York Center
03:15PM 39.8142 -74.8408 103° East 358 412 12,000  Level New York Center
03:16PM 39.7956 -74.7128 101° East 358 412 12,000  Level New York Center
03:17PM 39.8039 -74.5864 85° East 353 406 12,000  Level New York Center
03:18PM 39.8136 -74.4733 84° East 348 400 12,000 120 Level New York Center
03:19PM 39.8219 -74.3386 85° East 348 400 12,300 660 Climbing New York Center
03:20PM 39.8808 -74.2522 48° Northeast 318 366 13,400 1,920 Climbing New York Center
03:23PM 40.0200 -74.0194 52° Northeast 335 386 18,900 2,160 Climbing Boston Center
03:24PM 40.0797 -73.9125 54° Northeast 347 399 20,800 1,020 Climbing Boston Center
03:25PM 40.1375 -73.7972 57° Northeast 359 413 21,000 60 Climbing Boston Center
03:26PM 40.1992 -73.6869 54° Northeast 364 419 21,000  Level Boston Center
03:27PM 40.2586 -73.5739 55° Northeast 371 427 21,000  Level Boston Center
03:28PM 40.3203 -73.4608 54° Northeast 371 427 21,000  Level Boston Center
03:29PM 40.3753 -73.3444 58° Northeast 371 427 21,000  Level Boston Center
03:30PM 40.4303 -73.2253 59° Northeast 371 427 21,000  Level Boston Center
03:31PM 40.4708 -73.0975 67° East 371 427 21,000  Level Boston Center
03:32PM 40.5008 -72.9642 73° East 377 434 21,000  Level Boston Center
03:33PM 40.5344 -72.8306 72° East 377 434 21,000 -300 Level Boston Center
03:34PM 40.5767 -72.7050 66° East 377 434 20,400 -960 Descending Boston Center
03:35PM 40.6414 -72.5961 52° Northeast 375 432 19,100 -1,020 Descending Boston Center
03:36PM 40.6978 -72.5031 51° Northeast 375 432 18,400 -900 Descending Boston Center
03:37PM 40.7603 -72.3961 52° Northeast 370 426 17,300 -1,440 Descending Boston Center
03:38PM 40.8247 -72.2947 50° Northeast 365 420 15,600 -1,680 Descending Boston Center
03:39PM 40.8706 -72.2289 47° Northeast 354 407 14,400 -1,440 Descending Boston Center
03:40PM 40.9431 -72.0967 54° Northeast 345 397 12,800 -1,500 Descending Boston Center
03:41PM 41.0011 -72.0083 49° Northeast 329 379 11,300 -1,620 Descending Boston Center
03:42PM 41.0633 -71.9392 40° Northeast 284 327 9,800 -1,620 Descending Boston Center
03:43PM 41.1319 -71.8753 35° Northeast 280 322 7,900 -1,380 Descending Boston Center
03:44PM 41.1858 -71.8222 37° Northeast 274 315 7,000 -1,080 Descending Boston Center
03:44PM 41.2044 -71.8028 38° Northeast 271 312 6,600 -1,320 Descending Boston Center
03:45PM 41.2500 -71.7608 35° Northeast 268 308 5,700 -1,020 Descending Boston Center
03:45PM 41.2625 -71.7469 40° Northeast 269 310 5,600 -780 Descending Boston Center
03:46PM 41.3081 -71.7050 35° Northeast 265 305 5,000 -780 Descending Boston Center
03:47PM 41.3639 -71.6464 38° Northeast 260 299 4,300 -720 Descending Boston Center
03:48PM 41.4178 -71.5931 37° Northeast 261 300 3,600 -660 Descending Boston Center
03:49PM 41.4694 -71.5425 36° Northeast 256 295 3,000 -600 Descending Boston Center
03:50PM 41.5314 -71.4917 32° Northeast 238 274 2,500 -720 Descending Boston Center
03:51PM 41.5983 -71.4908 North 178 205 1,500 -840 Descending Boston Center
03:52PM 41.6167 -71.4628 49° Northeast 149 171 900 -720 Descending Boston Center
03:52PM 41.6186 -71.4433 82° East 136 157 700 -600 Descending Boston Center
03:57PM 41.5971 -71.4121 246° West  Level Estimated
04:04PM 41.5971 -71.4121 246° West  Level Estimated
04:05PM 41.5971 -71.4121 246° West  Level Estimated
04:06PM 41.5971 -71.4121 246° West  Level Estimated
04:07PM 41.5971 -71.4121 246° West  Level Estimated